createdAt,value
2018-03-06T00:02:08.203Z,28.37
2018-03-06T00:04:34.883Z,27.97
2018-03-06T00:07:01.361Z,30.97
2018-03-06T00:09:27.987Z,31.60
2018-03-06T00:11:54.470Z,30.40
2018-03-06T00:14:20.971Z,31.00
2018-03-06T00:16:47.333Z,34.23
2018-03-06T00:19:13.811Z,33.67
2018-03-06T00:21:41.189Z,33.47
2018-03-06T00:24:07.705Z,31.10
2018-03-06T00:26:34.323Z,40.00
2018-03-06T00:29:00.732Z,35.60
2018-03-06T00:31:27.145Z,32.50
2018-03-06T00:33:53.729Z,39.30
2018-03-06T00:36:20.226Z,33.63
2018-03-06T00:38:46.630Z,29.40
2018-03-06T00:41:13.786Z,34.40
2018-03-06T00:43:40.283Z,32.40
2018-03-06T00:46:07.474Z,41.20
2018-03-06T00:48:34.654Z,32.40
2018-03-06T00:51:01.080Z,38.33
2018-03-06T00:53:27.519Z,35.10
2018-03-06T00:55:54.108Z,36.70
2018-03-06T00:58:20.558Z,31.57
2018-03-06T01:00:46.978Z,34.27
2018-03-06T01:03:13.506Z,36.10
2018-03-06T01:05:39.889Z,37.37
2018-03-06T01:08:06.345Z,35.10
2018-03-06T01:10:32.841Z,33.97
2018-03-06T01:12:59.252Z,34.70
2018-03-06T01:15:25.692Z,36.63
2018-03-06T01:17:52.095Z,32.27
2018-03-06T01:20:19.273Z,33.70
2018-03-06T01:22:45.707Z,32.63
2018-03-06T01:25:12.897Z,35.20
2018-03-06T01:27:39.326Z,37.77
2018-03-06T01:30:05.727Z,41.23
2018-03-06T01:32:32.896Z,38.10
2018-03-06T01:34:59.309Z,33.83
2018-03-06T01:37:25.740Z,39.97
2018-03-06T01:39:52.559Z,35.93
2018-03-06T01:42:19.731Z,44.10
2018-03-06T01:44:46.226Z,46.47
2018-03-06T01:47:13.437Z,53.83
2018-03-06T01:49:39.846Z,46.87
2018-03-06T01:52:06.286Z,46.37
2018-03-06T01:54:32.722Z,52.30
2018-03-06T01:56:59.151Z,51.40
2018-03-06T01:59:26.344Z,45.07
2018-03-06T02:01:52.921Z,45.77
2018-03-06T02:04:19.369Z,44.03
2018-03-06T02:06:45.841Z,49.20
2018-03-06T02:09:12.301Z,53.53
2018-03-06T02:11:39.571Z,52.77
2018-03-06T02:14:06.061Z,52.77
2018-03-06T02:16:32.518Z,54.60
2018-03-06T02:18:58.990Z,49.33
2018-03-06T02:21:25.411Z,52.87
2018-03-06T02:23:52.623Z,40.03
2018-03-06T02:26:19.733Z,42.80
2018-03-06T02:28:46.204Z,52.00
2018-03-06T02:31:12.696Z,34.80
2018-03-06T02:33:39.308Z,34.80
2018-03-06T02:36:05.747Z,33.40
2018-03-06T02:38:32.359Z,32.73
2018-03-06T02:40:59.631Z,34.97
2018-03-06T02:43:26.167Z,37.73
2018-03-06T02:46:11.585Z,34.17
2018-03-06T02:48:38.092Z,35.77
2018-03-06T02:51:05.251Z,38.83
2018-03-06T02:53:31.691Z,40.03
2018-03-06T02:55:58.099Z,36.03
2018-03-06T02:58:24.631Z,34.10
2018-03-06T03:00:51.165Z,37.13
2018-03-06T03:03:18.318Z,39.80
2018-03-06T03:05:44.736Z,44.20
2018-03-06T03:08:11.922Z,37.80
2018-03-06T03:10:38.376Z,40.57
2018-03-06T03:13:04.892Z,45.93
2018-03-06T03:15:31.388Z,43.47
2018-03-06T03:17:57.787Z,43.90
2018-03-06T03:20:24.236Z,49.77
2018-03-06T03:22:50.808Z,53.37
2018-03-06T03:25:17.263Z,51.00
2018-03-06T03:27:43.678Z,49.07
2018-03-06T03:30:10.858Z,52.33
2018-03-06T03:35:32.394Z,47.40
2018-03-06T03:37:58.888Z,46.90
2018-03-06T03:40:26.096Z,48.00
2018-03-06T03:42:52.768Z,48.10
2018-03-06T03:45:26.177Z,50.60
2018-03-06T03:47:52.738Z,47.30
2018-03-06T03:50:19.186Z,54.83
2018-03-06T03:52:45.774Z,53.87
2018-03-06T03:55:12.195Z,61.10
2018-03-06T03:57:38.659Z,65.67
2018-03-06T04:00:05.149Z,64.60
2018-03-06T04:02:31.564Z,67.63
2018-03-06T04:04:58.275Z,59.20
2018-03-06T04:07:24.735Z,63.77
2018-03-06T04:09:51.179Z,57.93
2018-03-06T04:12:17.658Z,66.73
2018-03-06T04:14:44.106Z,62.23
2018-03-06T04:17:11.432Z,58.30
2018-03-06T04:19:38.642Z,65.30
2018-03-06T04:22:05.134Z,62.63
2018-03-06T04:24:31.732Z,54.53
2018-03-06T04:26:58.227Z,60.70
2018-03-06T04:29:24.920Z,66.23
2018-03-06T04:31:52.101Z,65.93
2018-03-06T04:34:18.597Z,68.40
2018-03-06T04:36:45.855Z,62.43
2018-03-06T04:39:12.419Z,68.73
2018-03-06T04:41:38.974Z,56.73
2018-03-06T04:44:05.410Z,63.67
2018-03-06T04:46:31.898Z,60.50
2018-03-06T04:48:58.452Z,71.60
2018-03-06T04:51:25.683Z,62.93
2018-03-06T04:53:52.115Z,64.37
2018-03-06T04:56:19.394Z,60.37
2018-03-06T04:58:45.930Z,74.00
2018-03-06T05:01:12.385Z,65.97
2018-03-06T05:03:39.719Z,77.60
2018-03-06T05:06:06.153Z,71.67
2018-03-06T05:08:33.509Z,68.47
2018-03-06T05:11:00.044Z,72.40
2018-03-06T05:13:26.476Z,77.17
2018-03-06T05:15:53.632Z,75.73
2018-03-06T05:18:20.082Z,77.70
2018-03-06T05:20:46.540Z,69.27
2018-03-06T05:23:13.032Z,73.93
2018-03-06T05:25:39.540Z,75.77
2018-03-06T05:28:05.998Z,80.90
2018-03-06T05:30:32.429Z,89.47
2018-03-06T05:32:58.847Z,96.63
2018-03-06T05:35:26.119Z,74.30
2018-03-06T05:37:52.583Z,81.50
2018-03-06T05:40:19.004Z,87.90
2018-03-06T05:42:45.418Z,91.90
2018-03-06T05:45:11.886Z,88.60
2018-03-06T05:47:38.414Z,85.43
2018-03-06T05:50:04.897Z,81.80
2018-03-06T05:52:31.453Z,99.80
2018-03-06T05:54:58.690Z,86.93
2018-03-06T05:57:25.893Z,99.07
2018-03-06T05:59:52.389Z,85.77
2018-03-06T06:02:19.645Z,99.00
2018-03-06T06:04:46.377Z,92.57
2018-03-06T06:07:13.562Z,93.82
2018-03-06T06:09:40.069Z,90.83
2018-03-06T06:12:06.529Z,92.50
2018-03-06T06:14:32.982Z,84.60
2018-03-06T06:16:59.570Z,93.60
2018-03-06T06:19:26.785Z,101.10
2018-03-06T06:21:53.178Z,88.20
2018-03-06T06:24:19.651Z,96.40
2018-03-06T06:26:46.057Z,82.43
2018-03-06T06:29:12.497Z,87.23
2018-03-06T06:31:38.934Z,91.83
2018-03-06T06:34:05.339Z,78.40
2018-03-06T06:36:32.506Z,81.53
2018-03-06T06:38:59.000Z,77.20
2018-03-06T06:41:25.398Z,61.53
2018-03-06T06:43:51.867Z,58.43
2018-03-06T06:46:18.409Z,52.40
2018-03-06T06:48:45.558Z,92.93
2018-03-06T06:51:11.945Z,85.97
2018-03-06T06:53:38.405Z,107.97
2018-03-06T06:56:05.639Z,97.50
2018-03-06T06:58:32.011Z,94.83
2018-03-06T07:00:58.472Z,99.73
2018-03-06T07:03:24.886Z,103.80
2018-03-06T07:05:51.350Z,96.33
2018-03-06T07:08:17.802Z,102.23
2018-03-06T07:10:44.267Z,96.00
2018-03-06T07:13:10.676Z,100.33
2018-03-06T07:15:37.086Z,86.83
2018-03-06T07:18:03.515Z,91.63
2018-03-06T07:20:30.627Z,90.10
2018-03-06T07:22:57.921Z,95.47
2018-03-06T07:25:24.404Z,89.97
2018-03-06T07:27:51.582Z,93.53
2018-03-06T07:30:18.747Z,100.57
2018-03-06T07:32:45.881Z,71.27
2018-03-06T07:35:13.178Z,83.93
2018-03-06T07:37:39.758Z,91.50
2018-03-06T07:40:06.920Z,94.93
2018-03-06T07:42:34.075Z,94.67
2018-03-06T07:45:00.531Z,90.90
2018-03-06T07:47:27.087Z,94.50
2018-03-06T07:49:53.647Z,86.93
2018-03-06T07:52:20.095Z,92.93
2018-03-06T07:54:47.262Z,91.47
2018-03-06T07:57:14.474Z,88.20
2018-03-06T07:59:40.934Z,80.57
2018-03-06T08:02:08.093Z,89.07
2018-03-06T08:04:34.482Z,90.63
2018-03-06T08:07:00.940Z,96.73
2018-03-06T08:09:28.096Z,85.70
2018-03-06T08:11:54.481Z,87.40
2018-03-06T08:14:20.912Z,77.00
2018-03-06T08:16:47.304Z,93.90
2018-03-06T08:19:14.477Z,90.57
2018-03-06T08:21:40.898Z,87.47
2018-03-06T08:24:07.481Z,101.43
2018-03-06T08:26:34.249Z,92.33
2018-03-06T08:29:00.725Z,99.70
2018-03-06T08:31:27.261Z,83.97
2018-03-06T08:33:53.728Z,91.80
2018-03-06T08:36:21.670Z,86.70
2018-03-06T08:38:48.086Z,86.37
2018-03-06T08:41:14.651Z,104.90
2018-03-06T08:43:41.218Z,100.30
2018-03-06T08:46:08.443Z,109.83
2018-03-06T08:48:34.979Z,92.27
2018-03-06T08:51:01.407Z,89.23
2018-03-06T08:53:27.792Z,84.87
2018-03-06T08:55:54.923Z,89.90
2018-03-06T08:58:21.378Z,91.40
2018-03-06T09:00:47.792Z,86.77
2018-03-06T09:03:14.176Z,89.50
2018-03-06T09:05:40.576Z,83.53
2018-03-06T09:08:06.975Z,89.47
2018-03-06T09:10:33.439Z,89.47
2018-03-06T09:12:59.876Z,78.43
2018-03-06T09:15:27.016Z,83.70
2018-03-06T09:17:54.355Z,93.43
2018-03-06T09:20:20.875Z,92.57
2018-03-06T09:22:47.397Z,90.73
2018-03-06T09:25:13.933Z,95.30
2018-03-06T09:27:40.346Z,99.40
2018-03-06T09:30:06.737Z,106.37
2018-03-06T09:32:33.142Z,90.30
2018-03-06T09:34:59.559Z,95.13
2018-03-06T09:37:25.971Z,87.33
2018-03-06T09:39:52.373Z,100.00
2018-03-06T09:42:19.602Z,96.00
2018-03-06T09:44:46.026Z,84.80
2018-03-06T09:47:12.450Z,101.00
2018-03-06T09:49:39.084Z,93.37
2018-03-06T09:52:05.520Z,102.87
2018-03-06T09:54:31.989Z,97.40
2018-03-06T09:56:59.280Z,94.13
2018-03-06T09:59:26.580Z,102.10
2018-03-06T10:01:53.744Z,97.30
2018-03-06T10:04:20.904Z,95.83
2018-03-06T10:06:47.329Z,95.57
2018-03-06T10:09:14.483Z,96.30
2018-03-06T10:11:41.658Z,98.97
2018-03-06T10:14:08.044Z,93.80
2018-03-06T10:16:34.576Z,92.37
2018-03-06T10:19:01.765Z,84.90
2018-03-06T10:21:28.177Z,96.87
2018-03-06T10:23:54.623Z,94.63
2018-03-06T10:26:21.786Z,102.60
2018-03-06T10:28:48.167Z,83.27
2018-03-06T10:31:16.078Z,94.30
2018-03-06T10:33:42.583Z,91.13
2018-03-06T10:36:09.008Z,88.87
2018-03-06T10:38:36.159Z,94.10
2018-03-06T10:41:02.697Z,89.67
2018-03-06T10:43:29.231Z,91.57
2018-03-06T10:45:55.630Z,93.53
2018-03-06T10:48:22.033Z,93.70
2018-03-06T10:50:49.143Z,91.47
2018-03-06T10:53:15.625Z,95.00
2018-03-06T10:55:42.158Z,88.70
2018-03-06T10:58:08.590Z,93.57
2018-03-06T11:00:41.846Z,86.30
2018-03-06T11:03:09.011Z,93.70
2018-03-06T11:05:35.376Z,96.20
2018-03-06T11:08:01.861Z,97.37
2018-03-06T11:10:28.392Z,96.30
2018-03-06T11:12:54.814Z,92.37
2018-03-06T11:15:22.181Z,87.50
2018-03-06T11:17:48.643Z,82.83
2018-03-06T11:20:15.068Z,83.03
2018-03-06T11:22:42.283Z,82.80
2018-03-06T11:25:08.705Z,91.13
2018-03-06T11:27:35.101Z,90.90
2018-03-06T11:30:02.304Z,86.17
2018-03-06T11:32:28.770Z,99.27
2018-03-06T11:34:55.899Z,88.30
2018-03-06T11:37:23.074Z,91.37
2018-03-06T11:39:50.212Z,94.70
2018-03-06T11:42:17.358Z,89.33
2018-03-06T11:44:43.885Z,95.67
2018-03-06T11:47:11.100Z,97.80
2018-03-06T11:49:37.550Z,90.40
2018-03-06T11:52:04.008Z,90.90
2018-03-06T11:54:30.399Z,96.10
2018-03-06T11:56:56.805Z,95.77
2018-03-06T11:59:23.218Z,81.53
2018-03-06T12:01:50.401Z,88.80
2018-03-06T12:04:16.802Z,87.03
2018-03-06T12:06:43.196Z,85.97
2018-03-06T12:09:09.748Z,87.27
2018-03-06T12:11:36.124Z,92.63
2018-03-06T12:14:02.718Z,86.53
2018-03-06T12:16:29.893Z,90.43
2018-03-06T12:18:56.399Z,94.27
2018-03-06T12:21:23.066Z,89.70
2018-03-06T12:23:50.199Z,100.67
2018-03-06T12:26:16.731Z,91.33
2018-03-06T12:28:43.903Z,81.00
2018-03-06T12:31:10.313Z,90.20
2018-03-06T12:33:37.481Z,90.03
2018-03-06T12:36:04.654Z,91.90
2018-03-06T12:38:31.121Z,87.43
2018-03-06T12:40:58.284Z,99.73
2018-03-06T12:43:24.703Z,84.00
2018-03-06T12:45:51.110Z,92.40
2018-03-06T12:48:17.522Z,91.03
2018-03-06T12:50:43.933Z,88.53
2018-03-06T12:53:10.351Z,96.43
2018-03-06T12:55:36.769Z,93.17
2018-03-06T12:58:03.216Z,83.03
2018-03-06T13:00:29.642Z,93.53
2018-03-06T13:02:56.872Z,94.10
2018-03-06T13:05:23.444Z,88.67
2018-03-06T13:07:50.614Z,90.80
2018-03-06T13:10:17.738Z,88.93
2018-03-06T13:12:44.152Z,86.90
2018-03-06T13:15:10.552Z,94.53
2018-03-06T13:17:36.962Z,88.47
2018-03-06T13:20:04.292Z,95.60
2018-03-06T13:22:30.741Z,98.40
2018-03-06T13:24:57.220Z,85.33
2018-03-06T13:27:23.682Z,82.20
2018-03-06T13:29:50.118Z,86.30
2018-03-06T13:32:16.640Z,85.87
2018-03-06T13:34:43.215Z,84.63
2018-03-06T13:37:10.454Z,86.10
2018-03-06T13:39:37.668Z,89.37
2018-03-06T13:42:04.132Z,77.47
2018-03-06T13:44:30.566Z,81.37
2018-03-06T13:46:57.061Z,82.27
2018-03-06T13:49:23.618Z,91.83
2018-03-06T13:51:50.082Z,79.53
2018-03-06T13:54:16.609Z,86.33
2018-03-06T13:56:43.139Z,80.10
2018-03-06T13:59:09.562Z,81.97
2018-03-06T14:01:35.976Z,76.23
2018-03-06T14:04:02.517Z,82.30
2018-03-06T14:06:28.916Z,85.20
2018-03-06T14:08:55.409Z,89.03
2018-03-06T14:11:21.852Z,79.97
2018-03-06T14:13:49.007Z,70.57
2018-03-06T14:16:16.320Z,73.97
2018-03-06T14:18:42.802Z,68.33
2018-03-06T14:21:10.021Z,64.93
2018-03-06T14:23:36.566Z,66.63
2018-03-06T14:26:03.796Z,76.20
2018-03-06T14:28:30.200Z,67.50
2018-03-06T14:30:56.584Z,73.97
2018-03-06T14:33:23.120Z,74.60
2018-03-06T14:35:49.686Z,73.40
2018-03-06T14:38:16.319Z,78.27
2018-03-06T14:40:43.647Z,73.83
2018-03-06T14:43:11.615Z,67.87
2018-03-06T14:45:38.115Z,68.57
2018-03-06T14:48:04.684Z,69.63
2018-03-06T14:50:31.071Z,76.90
2018-03-06T14:52:57.532Z,66.23
2018-03-06T14:55:23.996Z,77.23
2018-03-06T14:57:51.181Z,69.43
2018-03-06T15:00:17.588Z,69.07
2018-03-06T15:02:44.055Z,64.33
2018-03-06T15:05:18.420Z,70.60
2018-03-06T15:07:44.958Z,73.20
2018-03-06T15:10:11.353Z,72.07
2018-03-06T15:12:37.828Z,75.57
2018-03-06T15:15:04.340Z,74.33
2018-03-06T15:17:30.739Z,74.83
2018-03-06T15:19:57.139Z,76.90
2018-03-06T15:22:24.585Z,68.07
2018-03-06T15:24:50.990Z,74.37
2018-03-06T15:27:17.549Z,75.07
2018-03-06T15:29:44.003Z,72.03
2018-03-06T15:32:11.223Z,77.23
2018-03-06T15:34:37.655Z,74.00
2018-03-06T15:37:04.101Z,67.57
2018-03-06T15:39:30.574Z,71.43
2018-03-06T15:41:57.036Z,52.97
2018-03-06T15:44:23.533Z,58.77
2018-03-06T15:46:50.084Z,63.93
2018-03-06T15:49:16.558Z,65.90
2018-03-06T15:51:43.575Z,59.60
2018-03-06T15:54:10.154Z,59.80
2018-03-06T15:56:37.515Z,55.70
2018-03-06T15:59:04.731Z,61.53
2018-03-06T16:01:31.277Z,58.03
2018-03-06T16:03:57.762Z,59.50
2018-03-06T16:06:24.218Z,60.43
2018-03-06T16:08:50.634Z,65.57
2018-03-06T16:11:17.218Z,71.53
2018-03-06T16:13:43.698Z,72.70
2018-03-06T16:16:10.303Z,69.47
2018-03-06T16:18:36.798Z,65.80
2018-03-06T16:21:03.300Z,70.17
2018-03-06T16:23:29.783Z,69.37
2018-03-06T16:25:56.971Z,61.00
2018-03-06T16:28:23.597Z,61.33
2018-03-06T16:30:50.028Z,68.60
2018-03-06T16:33:16.901Z,58.60
2018-03-06T16:35:44.050Z,57.20
2018-03-06T16:38:11.222Z,64.60
2018-03-06T16:40:37.810Z,65.37
2018-03-06T16:43:04.453Z,58.80
2018-03-06T16:45:31.631Z,62.33
2018-03-06T16:47:58.125Z,74.00
2018-03-06T16:50:24.753Z,69.80
2018-03-06T16:52:58.263Z,66.83
2018-03-06T16:55:24.948Z,76.87
2018-03-06T16:57:51.677Z,66.20
2018-03-06T17:00:19.175Z,69.30
2018-03-06T17:02:46.605Z,70.47
2018-03-06T17:05:13.402Z,75.30
2018-03-06T17:07:39.987Z,78.17
2018-03-06T17:10:07.423Z,72.83
2018-03-06T17:12:34.078Z,71.60
2018-03-06T17:15:01.562Z,72.03
2018-03-06T17:17:28.123Z,70.00
2018-03-06T17:19:54.888Z,82.20
2018-03-06T17:22:22.245Z,75.40
2018-03-06T17:24:48.906Z,75.73
2018-03-06T17:27:15.479Z,76.60
2018-03-06T17:29:42.776Z,79.03
2018-03-06T17:32:09.482Z,85.00
2018-03-06T17:34:36.132Z,81.20
2018-03-06T17:37:02.692Z,76.10
2018-03-06T17:39:29.514Z,66.07
2018-03-06T17:41:56.137Z,72.30
2018-03-06T17:44:22.757Z,74.87
2018-03-06T17:46:50.050Z,71.87
2018-03-06T17:49:16.753Z,76.07
2018-03-06T17:51:44.070Z,72.20
2018-03-06T17:54:10.681Z,77.50
2018-03-06T17:56:37.230Z,69.27
2018-03-06T17:59:03.781Z,78.90
2018-03-06T18:01:31.228Z,106.53
2018-03-06T18:03:57.922Z,70.70
2018-03-06T18:06:24.542Z,84.10
2018-03-06T18:08:51.846Z,76.63
2018-03-06T18:11:18.561Z,77.47
2018-03-06T18:13:45.199Z,77.07
2018-03-06T18:16:11.796Z,76.70
2018-03-06T18:18:38.781Z,70.57
2018-03-06T18:21:05.398Z,90.93
2018-03-06T18:23:31.983Z,83.20
2018-03-06T18:25:58.807Z,81.33
2018-03-06T18:28:25.434Z,82.23
2018-03-06T18:30:52.032Z,84.43
2018-03-06T18:33:18.712Z,109.60
2018-03-06T18:35:46.018Z,119.50
2018-03-06T18:38:12.785Z,111.30
2018-03-06T18:40:39.426Z,108.97
2018-03-06T18:43:06.087Z,100.07
2018-03-06T18:45:33.448Z,90.30
2018-03-06T18:47:59.918Z,93.97
2018-03-06T18:50:38.988Z,88.70
2018-03-06T18:53:05.414Z,104.23
2018-03-06T18:55:31.968Z,92.77
2018-03-06T18:57:58.436Z,108.30
2018-03-06T19:03:44.258Z,89.53
2018-03-06T19:09:16.406Z,94.60
2018-03-06T19:11:43.651Z,86.70
2018-03-06T19:14:10.855Z,93.10
2018-03-06T19:16:37.436Z,87.67
2018-03-06T19:19:04.669Z,87.83
2018-03-06T19:21:31.084Z,88.10
2018-03-06T19:23:57.602Z,85.40
2018-03-06T19:26:24.077Z,82.67
2018-03-06T19:28:50.630Z,89.47
2018-03-06T19:31:18.086Z,95.83
2018-03-06T19:33:44.603Z,91.43
2018-03-06T19:36:11.153Z,86.47
2018-03-06T19:38:38.609Z,85.80
2018-03-06T19:41:05.769Z,107.10
2018-03-06T19:43:32.505Z,79.17
2018-03-06T19:45:59.344Z,91.17
2018-03-06T19:48:26.804Z,88.97
2018-03-06T19:50:53.230Z,91.03
2018-03-06T19:53:20.416Z,87.43
2018-03-06T19:55:47.544Z,88.77
2018-03-06T19:58:14.151Z,92.50
2018-03-06T20:00:40.807Z,98.23
2018-03-06T20:03:08.062Z,89.10
2018-03-06T20:05:35.228Z,100.50
2018-03-06T20:08:01.699Z,96.00
2018-03-06T20:10:28.117Z,93.90
2018-03-06T20:12:54.589Z,109.43
2018-03-06T20:15:22.180Z,92.50
2018-03-06T20:17:48.654Z,92.87
2018-03-06T20:20:15.070Z,92.97
2018-03-06T20:22:41.538Z,90.50
2018-03-06T20:25:14.525Z,108.43
2018-03-06T20:27:41.776Z,95.83
2018-03-06T20:30:08.253Z,99.40
2018-03-06T20:32:40.828Z,85.63
2018-03-06T20:35:07.358Z,90.40
2018-03-06T20:37:33.751Z,96.90
2018-03-06T20:40:06.338Z,93.10
2018-03-06T20:42:33.004Z,94.03
2018-03-06T20:45:00.256Z,103.07
2018-03-06T20:47:26.766Z,102.33
2018-03-06T20:49:53.539Z,104.90
2018-03-06T20:52:20.042Z,104.00
2018-03-06T20:54:52.616Z,103.07
2018-03-06T20:57:19.063Z,107.70
2018-03-06T20:59:45.620Z,99.23
2018-03-06T21:02:12.802Z,105.00
2018-03-06T21:04:39.249Z,100.00
2018-03-06T21:07:05.667Z,91.40
2018-03-06T21:09:32.090Z,92.23
2018-03-06T21:11:59.230Z,102.93
2018-03-06T21:14:25.672Z,110.43
2018-03-06T21:16:52.125Z,102.83
2018-03-06T21:19:18.822Z,105.07
2018-03-06T21:21:45.982Z,97.23
2018-03-06T21:24:13.331Z,102.00
2018-03-06T21:26:39.768Z,100.60
2018-03-06T21:29:06.224Z,113.57
2018-03-06T21:31:32.805Z,106.57
2018-03-06T21:33:59.362Z,103.40
2018-03-06T21:36:26.570Z,106.27
2018-03-06T21:38:53.015Z,96.87
2018-03-06T21:41:19.433Z,92.67
2018-03-06T21:43:45.853Z,103.50
2018-03-06T21:46:12.448Z,97.60
2018-03-06T21:48:39.597Z,95.97
2018-03-06T21:51:06.048Z,97.00
2018-03-06T21:53:33.363Z,98.97
2018-03-06T21:55:59.796Z,93.40
2018-03-06T21:58:26.278Z,91.93
2018-03-06T22:00:52.782Z,96.80
2018-03-06T22:03:19.225Z,91.30
2018-03-06T22:05:45.744Z,88.40
2018-03-06T22:08:12.222Z,89.30
2018-03-06T22:10:38.658Z,97.03
2018-03-06T22:13:05.206Z,96.07
2018-03-06T22:15:31.796Z,102.33
2018-03-06T22:17:58.361Z,97.17
2018-03-06T22:20:24.923Z,88.37
2018-03-06T22:22:51.385Z,90.73
2018-03-06T22:25:17.820Z,85.83
2018-03-06T22:27:44.373Z,79.97
2018-03-06T22:30:11.665Z,93.77
2018-03-06T22:32:38.191Z,82.97
2018-03-06T22:35:04.692Z,82.50
2018-03-06T22:37:31.961Z,81.73
2018-03-06T22:40:00.019Z,78.17
2018-03-06T22:42:27.204Z,81.50
2018-03-06T22:44:53.788Z,85.73
2018-03-06T22:47:20.249Z,74.97
2018-03-06T22:49:46.730Z,81.33
2018-03-06T22:52:13.296Z,70.83
2018-03-06T22:54:39.851Z,71.80
2018-03-06T22:57:07.125Z,86.30
2018-03-06T22:59:33.583Z,81.37
2018-03-06T23:02:00.024Z,77.60
2018-03-06T23:04:26.444Z,87.80
2018-03-06T23:06:52.904Z,82.30
2018-03-06T23:09:19.365Z,77.10
2018-03-06T23:11:46.522Z,76.17
2018-03-06T23:14:12.984Z,71.37
2018-03-06T23:16:39.481Z,66.37
2018-03-06T23:19:06.726Z,72.60
2018-03-06T23:21:33.277Z,69.83
2018-03-06T23:24:00.622Z,66.53
2018-03-06T23:26:27.801Z,64.53
2018-03-06T23:28:54.338Z,71.03
2018-03-06T23:31:20.743Z,62.83
2018-03-06T23:33:47.148Z,62.83
2018-03-06T23:36:13.611Z,63.60
2018-03-06T23:38:40.763Z,58.50
2018-03-06T23:41:07.290Z,61.07
2018-03-06T23:43:34.574Z,58.27
2018-03-06T23:46:00.966Z,60.63
2018-03-06T23:48:27.409Z,56.03
2018-03-06T23:50:53.819Z,53.13
2018-03-06T23:53:20.209Z,57.20
2018-03-06T23:55:46.632Z,56.00
2018-03-06T23:58:13.116Z,54.27
